createdAt,value
2019-03-15T00:02:22.999Z,6.10
2019-03-15T00:04:51.858Z,6.00
2019-03-15T00:07:20.712Z,6.00
2019-03-15T00:09:49.491Z,5.90
2019-03-15T00:12:18.266Z,5.80
2019-03-15T00:14:47.090Z,5.70
2019-03-15T00:17:15.939Z,5.50
2019-03-15T00:19:44.716Z,5.40
2019-03-15T00:22:13.523Z,5.30
2019-03-15T00:24:42.656Z,5.30
2019-03-15T00:27:11.514Z,5.30
2019-03-15T00:29:40.299Z,5.40
2019-03-15T00:32:10.678Z,5.60
2019-03-15T00:34:39.559Z,5.60
2019-03-15T00:37:08.371Z,5.70
2019-03-15T00:39:37.174Z,5.80
2019-03-15T00:42:06.214Z,5.80
2019-03-15T00:44:35.033Z,5.80
2019-03-15T00:47:03.917Z,5.80
2019-03-15T00:49:32.745Z,5.80
2019-03-15T00:52:01.645Z,5.80
2019-03-15T00:54:30.540Z,5.80
2019-03-15T00:56:59.610Z,5.70
2019-03-15T00:59:28.708Z,5.70
2019-03-15T01:01:57.615Z,5.70
2019-03-15T01:04:26.413Z,5.80
2019-03-15T01:06:55.202Z,5.80
2019-03-15T01:09:24.051Z,5.90
2019-03-15T01:11:52.909Z,6.00
2019-03-15T01:14:22.032Z,6.10
2019-03-15T01:16:50.849Z,6.20
2019-03-15T01:19:19.918Z,6.20
2019-03-15T01:21:48.814Z,6.20
2019-03-15T01:24:17.643Z,6.20
2019-03-15T01:26:46.695Z,6.20
2019-03-15T01:29:15.482Z,6.20
2019-03-15T01:31:44.998Z,6.20
2019-03-15T01:34:22.282Z,6.20
2019-03-15T01:36:51.087Z,6.20
2019-03-15T01:39:20.251Z,6.30
2019-03-15T01:41:49.386Z,6.30
2019-03-15T01:44:24.343Z,6.30
2019-03-15T01:46:53.167Z,6.20
2019-03-15T01:49:21.988Z,6.20
2019-03-15T01:51:51.050Z,6.20
2019-03-15T01:54:20.073Z,6.20
2019-03-15T01:56:48.857Z,6.20
2019-03-15T01:59:18.017Z,6.10
2019-03-15T02:01:46.873Z,6.10
2019-03-15T02:04:18.596Z,6.10
2019-03-15T02:06:47.773Z,6.20
2019-03-15T02:09:16.610Z,6.20
2019-03-15T02:11:45.545Z,6.30
2019-03-15T02:14:14.564Z,6.40
2019-03-15T02:16:43.447Z,6.40
2019-03-15T02:19:12.329Z,6.50
2019-03-15T02:21:41.171Z,6.50
2019-03-15T02:24:10.123Z,6.50
2019-03-15T02:26:38.994Z,6.50
2019-03-15T02:29:07.962Z,6.50
2019-03-15T02:31:36.763Z,6.40
2019-03-15T02:34:05.673Z,6.30
2019-03-15T02:36:34.546Z,6.20
2019-03-15T02:39:04.341Z,6.20
2019-03-15T02:41:33.142Z,6.10
2019-03-15T02:44:02.151Z,6.10
2019-03-15T02:47:48.122Z,6.10
2019-03-15T02:50:35.642Z,6.00
2019-03-15T02:53:04.746Z,5.90
2019-03-15T02:55:33.829Z,5.90
2019-03-15T02:58:02.926Z,5.80
2019-03-15T03:00:32.097Z,5.80
2019-03-15T03:03:02.086Z,5.70
2019-03-15T03:05:31.067Z,5.70
2019-03-15T03:08:15.417Z,5.70
2019-03-15T03:10:50.126Z,5.60
2019-03-15T03:14:23.217Z,5.80
2019-03-15T03:17:06.268Z,6.00
2019-03-15T03:19:56.064Z,6.20
2019-03-15T03:23:10.817Z,6.40
2019-03-15T03:25:28.257Z,6.50
2019-03-15T03:27:58.021Z,6.50
2019-03-15T03:30:26.904Z,6.60
2019-03-15T03:37:01.632Z,6.70
2019-03-15T03:40:21.023Z,6.70
2019-03-15T03:43:58.230Z,6.80
2019-03-15T03:47:42.131Z,6.80
2019-03-15T03:52:32.923Z,6.90
2019-03-15T03:55:02.141Z,6.90
2019-03-15T03:57:31.233Z,6.90
2019-03-15T04:00:00.478Z,6.90
2019-03-15T04:02:32.781Z,6.90
2019-03-15T04:05:00.349Z,6.90
2019-03-15T04:07:29.380Z,7.00
2019-03-15T04:09:58.494Z,7.00
2019-03-15T04:12:27.318Z,7.10
2019-03-15T04:14:56.103Z,7.10
2019-03-15T04:17:24.895Z,7.20
2019-03-15T04:19:53.668Z,7.20
2019-03-15T04:22:22.551Z,7.20
2019-03-15T04:24:51.505Z,7.20
2019-03-15T04:27:20.385Z,7.10
2019-03-15T04:29:49.169Z,7.10
2019-03-15T04:32:18.348Z,7.10
2019-03-15T04:34:47.147Z,7.10
2019-03-15T04:37:16.245Z,7.10
2019-03-15T04:39:45.103Z,7.00
2019-03-15T04:42:13.984Z,7.00
2019-03-15T04:44:42.860Z,7.00
2019-03-15T04:47:11.703Z,7.00
2019-03-15T04:49:40.491Z,7.00
2019-03-15T04:52:09.347Z,7.00
2019-03-15T04:54:40.175Z,7.00
2019-03-15T04:57:09.239Z,7.10
2019-03-15T04:59:38.028Z,7.10
2019-03-15T05:02:07.125Z,7.10
2019-03-15T05:04:35.964Z,7.20
2019-03-15T05:07:05.096Z,7.20
2019-03-15T05:09:33.871Z,7.20
2019-03-15T05:12:02.966Z,7.20
2019-03-15T05:14:31.755Z,7.20
2019-03-15T05:17:00.577Z,7.10
2019-03-15T05:19:29.504Z,7.10
2019-03-15T05:21:58.365Z,7.00
2019-03-15T05:28:28.866Z,6.90
2019-03-15T05:31:53.769Z,6.90
2019-03-15T05:34:33.154Z,6.90
2019-03-15T05:37:02.038Z,7.00
2019-03-15T05:39:31.284Z,7.10
2019-03-15T05:42:00.106Z,7.10
2019-03-15T05:44:36.221Z,7.10
2019-03-15T05:47:05.229Z,7.10
2019-03-15T05:49:34.120Z,7.00
2019-03-15T05:52:03.020Z,7.00
2019-03-15T05:54:33.803Z,7.00
2019-03-15T05:57:12.593Z,7.00
2019-03-15T05:59:41.491Z,7.00
2019-03-15T06:02:10.573Z,7.00
2019-03-15T06:04:39.455Z,7.00
2019-03-15T06:07:08.286Z,7.00
2019-03-15T06:09:37.074Z,7.00
2019-03-15T06:12:05.970Z,7.00
2019-03-15T06:14:35.446Z,7.00
2019-03-15T06:17:04.670Z,7.00
2019-03-15T06:19:33.464Z,7.00
2019-03-15T06:25:37.973Z,7.00
2019-03-15T06:28:07.892Z,6.90
2019-03-15T06:30:36.810Z,6.90
2019-03-15T06:33:05.735Z,6.90
2019-03-15T06:35:55.674Z,6.90
2019-03-15T06:38:24.754Z,6.90
2019-03-15T06:41:43.094Z,6.80
2019-03-15T06:44:41.955Z,6.80
2019-03-15T06:47:30.032Z,6.80
2019-03-15T06:49:55.032Z,6.80
2019-03-15T06:52:24.067Z,6.80
2019-03-15T06:54:59.979Z,6.80
2019-03-15T06:57:28.993Z,6.80
2019-03-15T06:59:59.559Z,6.70
2019-03-15T07:02:28.456Z,6.70
2019-03-15T07:04:57.224Z,6.70
2019-03-15T07:07:26.326Z,6.70
2019-03-15T07:09:55.116Z,6.70
2019-03-15T07:12:24.002Z,6.70
2019-03-15T07:15:06.327Z,6.70
2019-03-15T07:17:35.305Z,6.70
2019-03-15T07:20:04.841Z,6.80
2019-03-15T07:22:34.031Z,6.80
2019-03-15T07:25:03.576Z,6.90
2019-03-15T07:27:32.816Z,6.90
2019-03-15T07:30:01.599Z,7.00
2019-03-15T07:32:35.739Z,7.00
2019-03-15T07:35:04.783Z,7.10
2019-03-15T07:37:50.696Z,7.10
2019-03-15T07:40:37.145Z,7.10
2019-03-15T07:43:06.285Z,7.10
2019-03-15T07:46:06.609Z,7.10
2019-03-15T07:48:35.895Z,7.10
2019-03-15T07:51:04.831Z,7.10
2019-03-15T07:53:35.391Z,7.10
2019-03-15T07:56:05.067Z,7.20
2019-03-15T07:58:33.884Z,7.20
2019-03-15T08:01:03.252Z,7.20
2019-03-15T08:03:32.362Z,7.30
2019-03-15T08:06:01.299Z,7.30
2019-03-15T08:08:30.190Z,7.40
2019-03-15T08:10:59.316Z,7.50
2019-03-15T08:13:28.209Z,7.60
2019-03-15T08:16:51.890Z,7.70
2019-03-15T08:28:06.808Z,7.80
2019-03-15T08:31:36.204Z,7.80
2019-03-15T08:34:04.434Z,7.80
2019-03-15T08:36:42.664Z,7.90
2019-03-15T08:39:11.704Z,7.90
2019-03-15T08:41:40.485Z,7.90
2019-03-15T08:44:09.287Z,7.80
2019-03-15T08:46:38.366Z,7.90
2019-03-15T08:49:07.509Z,7.90
2019-03-15T08:51:36.723Z,7.90
2019-03-15T08:54:05.523Z,7.90
2019-03-15T08:56:34.549Z,7.90
2019-03-15T08:59:03.528Z,7.90
2019-03-15T09:01:32.415Z,7.90
2019-03-15T09:04:01.249Z,7.90
2019-03-15T09:06:30.027Z,7.90
2019-03-15T09:08:58.901Z,7.90
2019-03-15T09:11:28.130Z,7.90
2019-03-15T09:13:57.005Z,7.90
2019-03-15T09:16:25.781Z,8.00
2019-03-15T09:18:55.579Z,8.10
2019-03-15T09:21:24.643Z,8.10
2019-03-15T09:23:53.681Z,8.30
2019-03-15T09:26:22.620Z,8.50
2019-03-15T09:28:51.501Z,8.60
2019-03-15T09:31:20.675Z,8.80
2019-03-15T09:33:49.592Z,8.80
2019-03-15T09:36:18.386Z,8.90
2019-03-15T09:38:47.287Z,8.90
2019-03-15T09:41:30.605Z,8.90
2019-03-15T09:43:47.190Z,8.90
2019-03-15T09:46:16.144Z,8.90
2019-03-15T09:48:44.981Z,8.90
2019-03-15T09:51:14.049Z,8.90
2019-03-15T09:53:43.111Z,8.90
2019-03-15T09:56:12.171Z,9.00
2019-03-15T09:58:41.030Z,9.00
2019-03-15T10:01:10.264Z,9.00
2019-03-15T10:03:39.457Z,9.10
2019-03-15T10:06:14.940Z,9.10
2019-03-15T10:08:39.425Z,9.10
2019-03-15T10:11:08.398Z,9.20
2019-03-15T10:13:37.344Z,9.20
2019-03-15T10:16:06.590Z,9.30
2019-03-15T10:18:35.541Z,9.40
2019-03-15T10:21:04.591Z,9.40
2019-03-15T10:23:33.506Z,9.50
2019-03-15T10:26:02.576Z,9.60
2019-03-15T10:28:31.425Z,9.60
2019-03-15T10:31:00.776Z,9.70
2019-03-15T10:34:06.950Z,9.80
2019-03-15T10:36:35.905Z,9.90
2019-03-15T10:39:06.095Z,9.90
2019-03-15T10:41:38.101Z,10.00
2019-03-15T10:44:05.634Z,9.90
2019-03-15T10:46:34.711Z,10.00
2019-03-15T10:49:07.970Z,10.00
2019-03-15T10:51:37.156Z,10.10
2019-03-15T10:57:44.436Z,10.20
2019-03-15T11:00:14.466Z,10.40
2019-03-15T11:02:43.639Z,10.50
2019-03-15T11:05:12.790Z,10.60
2019-03-15T11:07:41.687Z,10.70
2019-03-15T11:10:11.156Z,10.80
2019-03-15T11:12:40.422Z,10.80
2019-03-15T11:15:09.641Z,10.80
2019-03-15T11:17:38.569Z,10.80
2019-03-15T11:20:07.930Z,10.90
2019-03-15T11:22:36.956Z,10.90
2019-03-15T11:25:06.190Z,11.00
2019-03-15T11:27:35.118Z,11.00
2019-03-15T11:30:09.272Z,11.00
2019-03-15T11:32:38.309Z,11.00
2019-03-15T11:35:24.908Z,11.00
2019-03-15T11:37:53.822Z,11.00
2019-03-15T11:40:23.917Z,11.00
2019-03-15T11:42:52.718Z,11.00
2019-03-15T11:45:21.895Z,11.00
2019-03-15T11:48:03.168Z,11.00
2019-03-15T11:50:22.052Z,11.00
2019-03-15T11:52:50.905Z,11.10
2019-03-15T11:55:19.897Z,11.10
2019-03-15T11:57:48.886Z,11.10
2019-03-15T12:00:20.026Z,11.10
2019-03-15T12:02:49.114Z,11.10
2019-03-15T12:05:18.359Z,11.10
2019-03-15T12:07:47.548Z,11.10
2019-03-15T12:10:16.477Z,11.10
2019-03-15T12:12:46.273Z,11.20
2019-03-15T12:15:15.444Z,11.20
2019-03-15T12:17:44.373Z,11.20
2019-03-15T12:20:13.816Z,11.20
2019-03-15T12:22:42.782Z,11.20
2019-03-15T12:25:11.952Z,11.20
2019-03-15T12:27:41.023Z,11.20
2019-03-15T12:30:11.128Z,11.30
2019-03-15T12:32:42.055Z,11.30
2019-03-15T12:35:11.365Z,11.30
2019-03-15T12:37:40.573Z,11.30
2019-03-15T12:40:10.133Z,11.40
2019-03-15T12:42:39.203Z,11.40
2019-03-15T12:45:09.145Z,11.50
2019-03-15T12:47:40.059Z,11.50
2019-03-15T12:50:09.678Z,11.50
2019-03-15T12:52:48.216Z,11.60
2019-03-15T12:55:16.886Z,11.60
2019-03-15T12:57:48.998Z,11.70
2019-03-15T13:00:17.039Z,11.70
2019-03-15T13:02:46.539Z,11.80
2019-03-15T13:05:16.018Z,11.80
2019-03-15T13:07:46.262Z,11.90
2019-03-15T13:10:15.722Z,12.00
2019-03-15T13:12:45.276Z,12.10
2019-03-15T13:15:14.409Z,12.10
2019-03-15T13:17:43.687Z,12.20
2019-03-15T13:20:13.828Z,12.20
2019-03-15T13:22:46.185Z,12.20
2019-03-15T13:25:15.498Z,12.30
2019-03-15T13:27:44.836Z,12.40
2019-03-15T13:30:14.831Z,12.40
2019-03-15T13:36:29.470Z,12.50
2019-03-15T13:38:58.653Z,12.50
2019-03-15T13:41:27.760Z,12.50
2019-03-15T13:43:57.144Z,12.50
2019-03-15T13:46:26.077Z,12.50
2019-03-15T13:48:55.179Z,12.50
2019-03-15T13:51:24.328Z,12.60
2019-03-15T13:53:53.244Z,12.60
2019-03-15T13:56:22.144Z,12.60
2019-03-15T13:58:57.034Z,12.60
2019-03-15T14:01:21.545Z,12.60
2019-03-15T14:03:50.588Z,12.60
2019-03-15T14:06:19.420Z,12.50
2019-03-15T14:08:48.678Z,12.50
2019-03-15T14:11:17.857Z,12.50
2019-03-15T14:13:46.640Z,12.50
2019-03-15T14:16:15.819Z,12.40
2019-03-15T14:18:44.914Z,12.50
2019-03-15T14:21:14.017Z,12.50
2019-03-15T14:23:43.703Z,12.40
2019-03-15T14:26:12.599Z,12.40
2019-03-15T14:28:41.501Z,12.40
2019-03-15T14:31:10.632Z,12.40
2019-03-15T14:33:39.412Z,12.40
2019-03-15T14:36:08.207Z,12.30
2019-03-15T14:38:37.091Z,12.30
2019-03-15T14:41:07.568Z,12.30
2019-03-15T14:43:36.829Z,12.30
2019-03-15T14:46:05.856Z,12.30
2019-03-15T14:48:34.717Z,12.30
2019-03-15T14:51:03.577Z,12.30
2019-03-15T14:53:32.714Z,12.40
2019-03-15T14:56:01.499Z,12.40
2019-03-15T14:58:30.459Z,12.50
2019-03-15T15:00:59.242Z,12.50
2019-03-15T15:03:28.342Z,12.60
2019-03-15T15:05:57.197Z,12.60
2019-03-15T15:08:26.130Z,12.60
2019-03-15T15:10:54.927Z,12.70
2019-03-15T15:13:24.096Z,12.70
2019-03-15T15:15:53.006Z,12.70
2019-03-15T15:18:21.822Z,12.60
2019-03-15T15:20:53.975Z,12.60
2019-03-15T15:23:22.876Z,12.60
2019-03-15T15:25:52.081Z,12.50
2019-03-15T15:28:20.882Z,12.50
2019-03-15T15:30:49.712Z,12.40
2019-03-15T15:33:18.627Z,12.40
2019-03-15T15:35:47.501Z,12.40
2019-03-15T15:38:16.336Z,12.30
2019-03-15T15:40:45.145Z,12.30
2019-03-15T15:43:14.049Z,12.30
2019-03-15T15:45:42.973Z,12.30
2019-03-15T15:48:11.811Z,12.40
2019-03-15T15:50:40.921Z,12.40
2019-03-15T15:53:11.226Z,12.30
2019-03-15T15:55:40.492Z,12.30
2019-03-15T15:58:17.708Z,12.30
2019-03-15T16:00:39.813Z,12.20
2019-03-15T16:03:08.692Z,12.10
2019-03-15T16:05:38.104Z,12.10
2019-03-15T16:08:06.943Z,12.00
2019-03-15T16:10:35.816Z,12.00
2019-03-15T16:13:16.635Z,12.00
2019-03-15T16:15:36.121Z,12.00
2019-03-15T16:18:05.028Z,11.90
2019-03-15T16:20:34.039Z,11.90
2019-03-15T16:23:02.849Z,11.90
2019-03-15T16:25:31.675Z,11.90
2019-03-15T16:28:00.469Z,11.80
2019-03-15T16:30:29.257Z,11.80
2019-03-15T16:33:00.161Z,11.80
2019-03-15T16:35:29.126Z,11.70
2019-03-15T16:37:58.110Z,11.60
2019-03-15T16:40:27.109Z,11.60
2019-03-15T16:42:56.002Z,11.60
2019-03-15T16:45:25.092Z,11.60
2019-03-15T16:47:54.379Z,11.60
2019-03-15T16:50:23.259Z,11.60
2019-03-15T16:52:52.363Z,11.50
2019-03-15T16:55:21.235Z,11.50
2019-03-15T16:57:50.208Z,11.50
2019-03-15T17:00:19.129Z,11.40
2019-03-15T17:02:47.950Z,11.40
2019-03-15T17:05:16.957Z,11.40
2019-03-15T17:07:45.771Z,11.40
2019-03-15T17:10:14.674Z,11.30
2019-03-15T17:12:43.634Z,11.40
2019-03-15T17:15:13.073Z,11.40
2019-03-15T17:17:41.948Z,11.30
2019-03-15T17:20:11.280Z,11.30
2019-03-15T17:22:40.233Z,11.30
2019-03-15T17:25:09.778Z,11.30
2019-03-15T17:27:38.704Z,11.30
2019-03-15T17:30:09.852Z,11.40
2019-03-15T17:32:39.066Z,11.40
2019-03-15T17:35:09.159Z,11.30
2019-03-15T17:37:38.304Z,11.40
2019-03-15T17:40:08.322Z,11.30
2019-03-15T17:42:37.614Z,11.30
2019-03-15T17:45:07.507Z,11.30
2019-03-15T17:47:36.784Z,11.30
2019-03-15T17:50:06.827Z,11.30
2019-03-15T17:52:36.060Z,11.30
2019-03-15T17:55:05.172Z,11.30
2019-03-15T17:57:33.958Z,11.30
2019-03-15T18:00:16.046Z,11.30
2019-03-15T18:02:45.006Z,11.30
2019-03-15T18:05:13.972Z,11.30
2019-03-15T18:07:43.646Z,11.30
2019-03-15T18:10:12.822Z,11.30
2019-03-15T18:12:41.790Z,11.30
2019-03-15T18:15:10.781Z,11.30
2019-03-15T18:17:39.635Z,11.30
2019-03-15T18:20:08.600Z,11.30
2019-03-15T18:22:37.552Z,11.30
2019-03-15T18:25:06.571Z,11.30
2019-03-15T18:27:35.457Z,11.30
2019-03-15T18:30:04.824Z,11.30
2019-03-15T18:32:33.596Z,11.30
2019-03-15T18:35:02.421Z,11.30
2019-03-15T18:37:31.681Z,11.30
2019-03-15T18:40:00.780Z,11.40
2019-03-15T18:42:29.767Z,11.40
2019-03-15T18:44:58.668Z,11.40
2019-03-15T18:47:27.540Z,11.40
2019-03-15T18:49:56.425Z,11.40
2019-03-15T18:52:25.217Z,11.40
2019-03-15T18:54:54.005Z,11.40
2019-03-15T18:57:22.889Z,11.40
2019-03-15T18:59:51.989Z,11.40
2019-03-15T19:02:20.865Z,11.30
2019-03-15T19:04:49.950Z,11.30
2019-03-15T19:07:18.769Z,11.40
2019-03-15T19:09:47.642Z,11.40
2019-03-15T19:12:16.437Z,11.40
2019-03-15T19:14:46.337Z,11.40
2019-03-15T19:17:15.225Z,11.40
2019-03-15T19:19:44.084Z,11.40
2019-03-15T19:22:13.457Z,11.40
2019-03-15T19:24:42.841Z,11.30
2019-03-15T19:27:11.916Z,11.40
2019-03-15T19:29:53.184Z,11.40
2019-03-15T19:32:11.645Z,11.40
2019-03-15T19:34:40.957Z,11.40
2019-03-15T19:37:09.919Z,11.40
2019-03-15T19:39:38.822Z,11.40
2019-03-15T19:42:07.734Z,11.40
2019-03-15T19:44:36.773Z,11.40
2019-03-15T19:47:05.555Z,11.40
2019-03-15T19:49:34.464Z,11.40
2019-03-15T19:52:03.414Z,11.40
2019-03-15T19:54:33.347Z,11.30
2019-03-15T19:57:02.408Z,11.30
2019-03-15T19:59:31.590Z,11.20
2019-03-15T20:02:00.654Z,11.20
2019-03-15T20:04:41.157Z,11.20
2019-03-15T20:07:10.564Z,11.20
2019-03-15T20:09:39.625Z,11.10
2019-03-15T20:12:08.626Z,11.10
2019-03-15T20:14:37.902Z,11.10
2019-03-15T20:17:06.853Z,11.10
2019-03-15T20:19:36.364Z,11.10
2019-03-15T20:22:05.570Z,11.20
2019-03-15T20:24:36.694Z,11.10
2019-03-15T20:27:05.748Z,11.10
2019-03-15T20:29:34.929Z,11.10
2019-03-15T20:32:03.994Z,11.00
2019-03-15T20:34:33.291Z,11.00
2019-03-15T20:37:04.334Z,10.90
2019-03-15T20:39:33.428Z,10.90
2019-03-15T20:42:02.414Z,10.90
2019-03-15T20:44:31.717Z,10.90
2019-03-15T20:47:00.696Z,10.90
2019-03-15T20:49:29.618Z,10.90
2019-03-15T20:52:00.795Z,10.80
2019-03-15T20:54:29.749Z,10.80
2019-03-15T20:56:58.670Z,10.80
2019-03-15T20:59:27.562Z,10.70
2019-03-15T21:01:56.511Z,10.70
2019-03-15T21:04:25.462Z,10.80
2019-03-15T21:06:54.649Z,10.80
2019-03-15T21:09:23.566Z,10.80
2019-03-15T21:11:52.545Z,10.80
2019-03-15T21:14:21.406Z,10.80
2019-03-15T21:16:50.948Z,10.80
2019-03-15T21:19:19.788Z,10.80
2019-03-15T21:21:48.647Z,10.80
2019-03-15T21:24:24.641Z,10.80
2019-03-15T21:26:53.623Z,10.70
2019-03-15T21:29:22.825Z,10.80
2019-03-15T21:31:51.888Z,10.80
2019-03-15T21:34:21.054Z,10.80
2019-03-15T21:36:49.966Z,10.80
2019-03-15T21:39:18.796Z,10.80
2019-03-15T21:41:47.942Z,10.80
2019-03-15T21:44:17.410Z,10.80
2019-03-15T21:46:46.440Z,10.80
2019-03-15T21:49:15.620Z,10.80
2019-03-15T21:51:44.525Z,10.90
2019-03-15T21:54:13.301Z,10.90
2019-03-15T21:56:42.385Z,10.90
2019-03-15T21:59:11.261Z,10.90
2019-03-15T22:01:40.308Z,10.90
2019-03-15T22:04:09.386Z,10.90
2019-03-15T22:06:38.362Z,10.90
2019-03-15T22:09:07.992Z,10.90
2019-03-15T22:11:37.722Z,10.90
2019-03-15T22:14:06.580Z,10.90
2019-03-15T22:16:35.569Z,11.00
2019-03-15T22:19:04.828Z,10.90
2019-03-15T22:21:33.633Z,10.90
2019-03-15T22:24:02.505Z,10.90
2019-03-15T22:26:31.661Z,10.90
2019-03-15T22:29:00.485Z,10.80
2019-03-15T22:31:29.390Z,10.80
2019-03-15T22:33:58.275Z,10.90
2019-03-15T22:36:27.376Z,10.90
2019-03-15T22:38:56.157Z,10.90
2019-03-15T22:41:25.238Z,10.90
2019-03-15T22:43:54.290Z,10.90
2019-03-15T22:46:23.248Z,10.90
2019-03-15T22:48:52.030Z,10.90
2019-03-15T22:51:21.325Z,10.90
2019-03-15T22:53:50.097Z,10.90
2019-03-15T22:56:18.920Z,10.90
2019-03-15T22:58:47.688Z,10.90
2019-03-15T23:01:29.179Z,10.90
2019-03-15T23:03:47.177Z,10.80
2019-03-15T23:06:16.061Z,10.80
2019-03-15T23:08:45.001Z,10.90
2019-03-15T23:11:13.804Z,10.90
2019-03-15T23:13:42.603Z,10.90
2019-03-15T23:16:11.714Z,10.90
2019-03-15T23:18:40.564Z,10.90
2019-03-15T23:21:09.602Z,10.90
2019-03-15T23:23:38.524Z,10.90
2019-03-15T23:26:07.451Z,10.90
2019-03-15T23:28:36.316Z,10.90
2019-03-15T23:31:05.094Z,10.90
2019-03-15T23:33:34.557Z,10.80
2019-03-15T23:36:03.775Z,10.90
2019-03-15T23:38:33.381Z,10.80
2019-03-15T23:41:02.273Z,10.80
2019-03-15T23:43:31.165Z,10.80
2019-03-15T23:45:59.950Z,10.80
2019-03-15T23:48:28.828Z,10.80
2019-03-15T23:50:57.604Z,10.90
2019-03-15T23:53:26.863Z,10.90
2019-03-15T23:55:56.006Z,10.90
2019-03-15T23:58:24.809Z,10.90
